sensor_id;sensor_type;location;lat;lon;timestamp;temperature;humidity
4564;DHT22;2294;51.818;8.484;2023-03-01T00:01:36;-1.10;99.90
4564;DHT22;2294;51.818;8.484;2023-03-01T00:04:02;-1.10;99.90
4564;DHT22;2294;51.818;8.484;2023-03-01T00:06:29;-1.20;99.90
4564;DHT22;2294;51.818;8.484;2023-03-01T00:08:56;-1.30;99.90
4564;DHT22;2294;51.818;8.484;2023-03-01T00:11:26;-1.10;99.90
4564;DHT22;2294;51.818;8.484;2023-03-01T00:13:55;-1.10;99.90
4564;DHT22;2294;51.818;8.484;2023-03-01T00:16:24;-1.20;99.90
4564;DHT22;2294;51.818;8.484;2023-03-01T00:18:51;-1.20;99.90
4564;DHT22;2294;51.818;8.484;2023-03-01T00:21:20;-1.20;99.90
4564;DHT22;2294;51.818;8.484;2023-03-01T00:23:48;-1.30;99.90
4564;DHT22;2294;51.818;8.484;2023-03-01T00:26:16;-1.30;99.90
4564;DHT22;2294;51.818;8.484;2023-03-01T00:28:45;-1.30;99.90
4564;DHT22;2294;51.818;8.484;2023-03-01T00:31:14;-1.30;99.90
4564;DHT22;2294;51.818;8.484;2023-03-01T00:33:42;-1.40;99.90
4564;DHT22;2294;51.818;8.484;2023-03-01T00:36:10;-1.50;99.90
4564;DHT22;2294;51.818;8.484;2023-03-01T00:38:38;-1.40;99.90
4564;DHT22;2294;51.818;8.484;2023-03-01T00:41:06;-1.50;99.90
4564;DHT22;2294;51.818;8.484;2023-03-01T00:43:34;-1.50;99.90
4564;DHT22;2294;51.818;8.484;2023-03-01T00:46:05;-1.40;99.90
4564;DHT22;2294;51.818;8.484;2023-03-01T00:48:32;-1.40;99.90
4564;DHT22;2294;51.818;8.484;2023-03-01T00:51:05;-1.50;99.90
4564;DHT22;2294;51.818;8.484;2023-03-01T00:53:32;-1.50;99.90
4564;DHT22;2294;51.818;8.484;2023-03-01T00:56:00;-1.50;99.90
4564;DHT22;2294;51.818;8.484;2023-03-01T00:58:27;-1.40;99.90
4564;DHT22;2294;51.818;8.484;2023-03-01T01:00:54;-1.60;99.90
4564;DHT22;2294;51.818;8.484;2023-03-01T01:03:22;-1.60;99.90
4564;DHT22;2294;51.818;8.484;2023-03-01T01:05:50;-1.60;99.90
4564;DHT22;2294;51.818;8.484;2023-03-01T01:08:17;-1.60;99.90
4564;DHT22;2294;51.818;8.484;2023-03-01T01:10:44;-1.70;99.90
4564;DHT22;2294;51.818;8.484;2023-03-01T01:13:12;-1.60;99.90
4564;DHT22;2294;51.818;8.484;2023-03-01T01:15:40;-1.60;99.90
4564;DHT22;2294;51.818;8.484;2023-03-01T01:18:06;-1.60;99.90
4564;DHT22;2294;51.818;8.484;2023-03-01T01:20:36;-1.60;99.90
4564;DHT22;2294;51.818;8.484;2023-03-01T01:23:05;-1.40;99.90
4564;DHT22;2294;51.818;8.484;2023-03-01T01:25:34;-1.50;99.90
4564;DHT22;2294;51.818;8.484;2023-03-01T01:28:01;-1.50;99.90
4564;DHT22;2294;51.818;8.484;2023-03-01T01:30:28;-1.30;99.90
4564;DHT22;2294;51.818;8.484;2023-03-01T01:32:55;-1.50;99.90
4564;DHT22;2294;51.818;8.484;2023-03-01T01:35:22;-1.50;99.90
4564;DHT22;2294;51.818;8.484;2023-03-01T01:37:50;-1.50;99.90
4564;DHT22;2294;51.818;8.484;2023-03-01T01:40:17;-1.40;99.90
4564;DHT22;2294;51.818;8.484;2023-03-01T01:42:44;-1.50;99.90
4564;DHT22;2294;51.818;8.484;2023-03-01T01:45:31;-1.70;99.90
4564;DHT22;2294;51.818;8.484;2023-03-01T01:48:01;-1.80;99.90
4564;DHT22;2294;51.818;8.484;2023-03-01T01:50:30;-1.80;99.90
4564;DHT22;2294;51.818;8.484;2023-03-01T01:53:06;-1.80;99.90
4564;DHT22;2294;51.818;8.484;2023-03-01T01:55:33;-1.90;99.90
4564;DHT22;2294;51.818;8.484;2023-03-01T01:58:04;-1.90;99.90
4564;DHT22;2294;51.818;8.484;2023-03-01T02:00:32;-1.70;99.90
4564;DHT22;2294;51.818;8.484;2023-03-01T02:03:01;-1.70;99.90
4564;DHT22;2294;51.818;8.484;2023-03-01T02:05:38;-1.80;99.90
4564;DHT22;2294;51.818;8.484;2023-03-01T02:08:08;-1.90;99.90
4564;DHT22;2294;51.818;8.484;2023-03-01T02:10:37;-2.00;99.90
4564;DHT22;2294;51.818;8.484;2023-03-01T02:13:05;-1.80;99.90
4564;DHT22;2294;51.818;8.484;2023-03-01T02:15:33;-1.80;99.90
4564;DHT22;2294;51.818;8.484;2023-03-01T02:18:01;-1.90;99.90
4564;DHT22;2294;51.818;8.484;2023-03-01T02:20:34;-1.90;99.90
4564;DHT22;2294;51.818;8.484;2023-03-01T02:23:03;-1.90;99.90
4564;DHT22;2294;51.818;8.484;2023-03-01T02:25:37;-2.00;99.90
4564;DHT22;2294;51.818;8.484;2023-03-01T02:30:45;-2.20;99.90
4564;DHT22;2294;51.818;8.484;2023-03-01T02:33:27;-2.20;99.90
4564;DHT22;2294;51.818;8.484;2023-03-01T02:35:59;-2.20;99.90
4564;DHT22;2294;51.818;8.484;2023-03-01T02:38:27;-2.20;99.90
4564;DHT22;2294;51.818;8.484;2023-03-01T02:40:54;-2.30;99.90
4564;DHT22;2294;51.818;8.484;2023-03-01T02:43:26;-2.30;99.90
4564;DHT22;2294;51.818;8.484;2023-03-01T02:45:58;-2.10;99.90
4564;DHT22;2294;51.818;8.484;2023-03-01T02:48:25;-2.00;99.90
4564;DHT22;2294;51.818;8.484;2023-03-01T02:51:02;-2.10;99.90
4564;DHT22;2294;51.818;8.484;2023-03-01T02:53:35;-2.20;99.90
4564;DHT22;2294;51.818;8.484;2023-03-01T02:56:06;-2.20;99.90
4564;DHT22;2294;51.818;8.484;2023-03-01T02:58:38;-2.20;99.90
4564;DHT22;2294;51.818;8.484;2023-03-01T03:01:12;-2.20;99.90
4564;DHT22;2294;51.818;8.484;2023-03-01T03:03:40;-2.20;99.90
4564;DHT22;2294;51.818;8.484;2023-03-01T03:06:07;-2.20;99.90
4564;DHT22;2294;51.818;8.484;2023-03-01T03:08:34;-2.30;99.90
4564;DHT22;2294;51.818;8.484;2023-03-01T03:11:02;-2.40;99.90
4564;DHT22;2294;51.818;8.484;2023-03-01T03:13:29;-2.40;99.90
4564;DHT22;2294;51.818;8.484;2023-03-01T03:15:56;-2.40;99.90
4564;DHT22;2294;51.818;8.484;2023-03-01T03:18:24;-2.40;99.90
4564;DHT22;2294;51.818;8.484;2023-03-01T03:20:52;-2.40;99.90
4564;DHT22;2294;51.818;8.484;2023-03-01T03:23:21;-2.40;99.90
4564;DHT22;2294;51.818;8.484;2023-03-01T03:25:49;-2.50;99.90
4564;DHT22;2294;51.818;8.484;2023-03-01T03:28:16;-2.50;99.90
4564;DHT22;2294;51.818;8.484;2023-03-01T03:30:44;-2.30;99.90
4564;DHT22;2294;51.818;8.484;2023-03-01T03:33:12;-2.20;99.90
4564;DHT22;2294;51.818;8.484;2023-03-01T03:35:42;-2.20;99.90
4564;DHT22;2294;51.818;8.484;2023-03-01T03:38:11;-2.30;99.90
4564;DHT22;2294;51.818;8.484;2023-03-01T03:40:43;-2.30;99.90
4564;DHT22;2294;51.818;8.484;2023-03-01T03:43:12;-2.10;99.90
4564;DHT22;2294;51.818;8.484;2023-03-01T03:45:40;-2.30;99.90
4564;DHT22;2294;51.818;8.484;2023-03-01T03:48:09;-2.30;99.90
4564;DHT22;2294;51.818;8.484;2023-03-01T03:50:36;-2.30;99.90
4564;DHT22;2294;51.818;8.484;2023-03-01T03:53:06;-2.30;99.90
4564;DHT22;2294;51.818;8.484;2023-03-01T03:55:34;-2.30;99.90
4564;DHT22;2294;51.818;8.484;2023-03-01T03:58:05;-2.30;99.90
4564;DHT22;2294;51.818;8.484;2023-03-01T04:00:33;-2.20;99.90
4564;DHT22;2294;51.818;8.484;2023-03-01T04:03:01;-2.20;99.90
4564;DHT22;2294;51.818;8.484;2023-03-01T04:05:28;-2.10;99.90
4564;DHT22;2294;51.818;8.484;2023-03-01T04:07:55;-2.30;99.90
4564;DHT22;2294;51.818;8.484;2023-03-01T04:10:35;-2.50;99.90
4564;DHT22;2294;51.818;8.484;2023-03-01T04:13:03;-2.60;99.90
4564;DHT22;2294;51.818;8.484;2023-03-01T04:15:31;-2.50;99.90
4564;DHT22;2294;51.818;8.484;2023-03-01T04:17:59;-2.50;99.90
4564;DHT22;2294;51.818;8.484;2023-03-01T04:20:28;-2.60;99.90
4564;DHT22;2294;51.818;8.484;2023-03-01T04:22:58;-2.40;99.90
4564;DHT22;2294;51.818;8.484;2023-03-01T04:25:37;-2.40;99.90
4564;DHT22;2294;51.818;8.484;2023-03-01T04:28:04;-2.50;99.90
4564;DHT22;2294;51.818;8.484;2023-03-01T04:30:31;-2.50;99.90
4564;DHT22;2294;51.818;8.484;2023-03-01T04:33:02;-2.40;99.90
4564;DHT22;2294;51.818;8.484;2023-03-01T04:35:30;-2.40;99.90
4564;DHT22;2294;51.818;8.484;2023-03-01T04:37:57;-2.40;99.90
4564;DHT22;2294;51.818;8.484;2023-03-01T04:40:24;-2.40;99.90
4564;DHT22;2294;51.818;8.484;2023-03-01T04:42:52;-2.40;99.90
4564;DHT22;2294;51.818;8.484;2023-03-01T04:45:19;-2.50;99.90
4564;DHT22;2294;51.818;8.484;2023-03-01T04:47:46;-2.50;99.90
4564;DHT22;2294;51.818;8.484;2023-03-01T04:50:16;-2.50;99.90
4564;DHT22;2294;51.818;8.484;2023-03-01T04:52:46;-2.60;99.90
4564;DHT22;2294;51.818;8.484;2023-03-01T04:55:13;-2.50;99.90
4564;DHT22;2294;51.818;8.484;2023-03-01T04:57:40;-2.40;99.90
4564;DHT22;2294;51.818;8.484;2023-03-01T05:00:11;-2.40;99.90
4564;DHT22;2294;51.818;8.484;2023-03-01T05:02:50;-2.40;99.90
4564;DHT22;2294;51.818;8.484;2023-03-01T05:05:25;-2.30;99.90
4564;DHT22;2294;51.818;8.484;2023-03-01T05:07:53;-2.40;99.90
4564;DHT22;2294;51.818;8.484;2023-03-01T05:10:22;-2.50;99.90
4564;DHT22;2294;51.818;8.484;2023-03-01T05:12:49;-2.60;99.90
4564;DHT22;2294;51.818;8.484;2023-03-01T05:15:19;-2.60;99.90
4564;DHT22;2294;51.818;8.484;2023-03-01T05:17:47;-2.60;99.90
4564;DHT22;2294;51.818;8.484;2023-03-01T05:20:14;-2.60;99.90
4564;DHT22;2294;51.818;8.484;2023-03-01T05:22:41;-2.60;99.90
4564;DHT22;2294;51.818;8.484;2023-03-01T05:25:08;-2.50;99.90
4564;DHT22;2294;51.818;8.484;2023-03-01T05:27:36;-2.40;99.90
4564;DHT22;2294;51.818;8.484;2023-03-01T05:30:03;-2.50;99.90
4564;DHT22;2294;51.818;8.484;2023-03-01T05:32:41;-2.30;99.90
4564;DHT22;2294;51.818;8.484;2023-03-01T05:35:11;-2.40;99.90
4564;DHT22;2294;51.818;8.484;2023-03-01T05:37:40;-2.50;99.90
4564;DHT22;2294;51.818;8.484;2023-03-01T05:40:09;-2.30;99.90
4564;DHT22;2294;51.818;8.484;2023-03-01T05:42:42;-2.30;99.90
4564;DHT22;2294;51.818;8.484;2023-03-01T05:45:09;-2.30;99.90
4564;DHT22;2294;51.818;8.484;2023-03-01T05:47:38;-2.10;99.90
4564;DHT22;2294;51.818;8.484;2023-03-01T05:50:11;-2.00;99.90
4564;DHT22;2294;51.818;8.484;2023-03-01T05:52:39;-2.00;99.90
4564;DHT22;2294;51.818;8.484;2023-03-01T05:55:07;-2.00;99.90
4564;DHT22;2294;51.818;8.484;2023-03-01T05:57:34;-2.10;99.90
4564;DHT22;2294;51.818;8.484;2023-03-01T06:00:01;-2.10;99.90
4564;DHT22;2294;51.818;8.484;2023-03-01T06:02:28;-2.20;99.90
4564;DHT22;2294;51.818;8.484;2023-03-01T06:04:55;-2.20;99.90
4564;DHT22;2294;51.818;8.484;2023-03-01T06:07:24;-2.00;99.90
4564;DHT22;2294;51.818;8.484;2023-03-01T06:09:50;-2.10;99.90
4564;DHT22;2294;51.818;8.484;2023-03-01T06:12:17;-2.20;99.90
4564;DHT22;2294;51.818;8.484;2023-03-01T06:14:45;-2.10;99.90
4564;DHT22;2294;51.818;8.484;2023-03-01T06:17:13;-2.20;99.90
4564;DHT22;2294;51.818;8.484;2023-03-01T06:19:40;-2.20;99.90
4564;DHT22;2294;51.818;8.484;2023-03-01T06:22:07;-2.20;99.90
4564;DHT22;2294;51.818;8.484;2023-03-01T06:24:36;-2.30;99.90
4564;DHT22;2294;51.818;8.484;2023-03-01T06:27:03;-2.40;99.90
4564;DHT22;2294;51.818;8.484;2023-03-01T06:29:30;-2.30;99.90
4564;DHT22;2294;51.818;8.484;2023-03-01T06:31:57;-2.30;99.90
4564;DHT22;2294;51.818;8.484;2023-03-01T06:34:23;-2.40;99.90
4564;DHT22;2294;51.818;8.484;2023-03-01T06:36:51;-2.20;99.90
4564;DHT22;2294;51.818;8.484;2023-03-01T06:39:18;-2.10;99.90
4564;DHT22;2294;51.818;8.484;2023-03-01T06:41:46;-2.00;99.90
4564;DHT22;2294;51.818;8.484;2023-03-01T06:44:13;-2.00;99.90
4564;DHT22;2294;51.818;8.484;2023-03-01T06:46:40;-1.90;99.90
4564;DHT22;2294;51.818;8.484;2023-03-01T06:49:07;-1.80;99.90
4564;DHT22;2294;51.818;8.484;2023-03-01T06:51:35;-1.90;99.90
4564;DHT22;2294;51.818;8.484;2023-03-01T06:54:03;-1.70;99.90
4564;DHT22;2294;51.818;8.484;2023-03-01T06:56:30;-1.50;99.90
4564;DHT22;2294;51.818;8.484;2023-03-01T06:58:58;-1.40;99.90
4564;DHT22;2294;51.818;8.484;2023-03-01T07:01:25;-1.30;99.90
4564;DHT22;2294;51.818;8.484;2023-03-01T07:03:52;-1.30;99.90
4564;DHT22;2294;51.818;8.484;2023-03-01T07:06:19;-1.20;99.90
4564;DHT22;2294;51.818;8.484;2023-03-01T07:08:46;-1.10;99.90
4564;DHT22;2294;51.818;8.484;2023-03-01T07:11:13;-1.20;99.90
4564;DHT22;2294;51.818;8.484;2023-03-01T07:13:40;-1.00;99.90
4564;DHT22;2294;51.818;8.484;2023-03-01T07:16:09;-0.90;99.90
4564;DHT22;2294;51.818;8.484;2023-03-01T07:18:35;-0.80;99.90
4564;DHT22;2294;51.818;8.484;2023-03-01T07:21:06;-0.80;99.90
4564;DHT22;2294;51.818;8.484;2023-03-01T07:23:33;-0.70;99.90
4564;DHT22;2294;51.818;8.484;2023-03-01T07:26:00;-0.60;99.90
4564;DHT22;2294;51.818;8.484;2023-03-01T07:28:27;-0.60;99.90
4564;DHT22;2294;51.818;8.484;2023-03-01T07:30:55;-0.50;99.90
4564;DHT22;2294;51.818;8.484;2023-03-01T07:33:23;-0.50;99.90
4564;DHT22;2294;51.818;8.484;2023-03-01T07:35:56;-0.50;99.90
4564;DHT22;2294;51.818;8.484;2023-03-01T07:38:23;-0.30;99.90
4564;DHT22;2294;51.818;8.484;2023-03-01T07:40:50;-0.20;99.90
4564;DHT22;2294;51.818;8.484;2023-03-01T07:43:17;-0.10;99.90
4564;DHT22;2294;51.818;8.484;2023-03-01T07:45:44;0.00;99.90
4564;DHT22;2294;51.818;8.484;2023-03-01T07:48:11;0.10;99.90
4564;DHT22;2294;51.818;8.484;2023-03-01T07:50:39;0.10;99.90
4564;DHT22;2294;51.818;8.484;2023-03-01T07:53:06;0.20;99.90
4564;DHT22;2294;51.818;8.484;2023-03-01T07:55:32;0.30;99.90
4564;DHT22;2294;51.818;8.484;2023-03-01T07:57:59;0.30;99.90
4564;DHT22;2294;51.818;8.484;2023-03-01T08:00:26;0.40;99.90
4564;DHT22;2294;51.818;8.484;2023-03-01T08:02:53;0.40;99.90
4564;DHT22;2294;51.818;8.484;2023-03-01T08:05:20;0.40;99.90
4564;DHT22;2294;51.818;8.484;2023-03-01T08:07:49;0.90;99.90
4564;DHT22;2294;51.818;8.484;2023-03-01T08:10:16;0.50;99.90
4564;DHT22;2294;51.818;8.484;2023-03-01T08:12:43;0.50;99.90
4564;DHT22;2294;51.818;8.484;2023-03-01T08:15:12;0.60;99.90
4564;DHT22;2294;51.818;8.484;2023-03-01T08:17:39;0.60;99.90
4564;DHT22;2294;51.818;8.484;2023-03-01T08:20:06;0.70;99.90
4564;DHT22;2294;51.818;8.484;2023-03-01T08:22:33;0.90;99.90
4564;DHT22;2294;51.818;8.484;2023-03-01T08:25:01;0.90;99.90
4564;DHT22;2294;51.818;8.484;2023-03-01T08:27:28;1.00;99.90
4564;DHT22;2294;51.818;8.484;2023-03-01T08:29:55;1.00;99.90
4564;DHT22;2294;51.818;8.484;2023-03-01T08:32:22;1.10;99.90
4564;DHT22;2294;51.818;8.484;2023-03-01T08:34:49;1.00;99.90
4564;DHT22;2294;51.818;8.484;2023-03-01T08:37:16;1.10;99.90
4564;DHT22;2294;51.818;8.484;2023-03-01T08:39:43;1.20;99.90
4564;DHT22;2294;51.818;8.484;2023-03-01T08:42:11;1.20;99.90
4564;DHT22;2294;51.818;8.484;2023-03-01T08:44:38;1.30;99.90
4564;DHT22;2294;51.818;8.484;2023-03-01T08:47:04;1.40;99.90
4564;DHT22;2294;51.818;8.484;2023-03-01T08:49:31;1.40;99.90
4564;DHT22;2294;51.818;8.484;2023-03-01T08:51:59;1.40;99.90
4564;DHT22;2294;51.818;8.484;2023-03-01T08:54:26;1.40;99.90
4564;DHT22;2294;51.818;8.484;2023-03-01T08:56:54;1.50;99.90
4564;DHT22;2294;51.818;8.484;2023-03-01T08:59:22;1.60;99.90
4564;DHT22;2294;51.818;8.484;2023-03-01T09:01:49;1.80;99.90
4564;DHT22;2294;51.818;8.484;2023-03-01T09:04:16;1.70;99.90
4564;DHT22;2294;51.818;8.484;2023-03-01T09:06:43;1.90;99.90
4564;DHT22;2294;51.818;8.484;2023-03-01T09:09:13;2.00;99.90
4564;DHT22;2294;51.818;8.484;2023-03-01T09:11:41;2.20;99.90
4564;DHT22;2294;51.818;8.484;2023-03-01T09:14:08;2.00;99.90
4564;DHT22;2294;51.818;8.484;2023-03-01T09:16:36;2.00;99.90
4564;DHT22;2294;51.818;8.484;2023-03-01T09:19:05;2.20;99.90
4564;DHT22;2294;51.818;8.484;2023-03-01T09:21:31;2.20;99.90
4564;DHT22;2294;51.818;8.484;2023-03-01T09:23:58;2.20;99.90
4564;DHT22;2294;51.818;8.484;2023-03-01T09:26:25;2.10;99.90
4564;DHT22;2294;51.818;8.484;2023-03-01T09:28:54;2.10;99.90
4564;DHT22;2294;51.818;8.484;2023-03-01T09:31:22;2.20;99.90
4564;DHT22;2294;51.818;8.484;2023-03-01T09:33:52;2.20;99.90
4564;DHT22;2294;51.818;8.484;2023-03-01T09:36:21;2.30;99.90
4564;DHT22;2294;51.818;8.484;2023-03-01T09:38:49;2.20;99.90
4564;DHT22;2294;51.818;8.484;2023-03-01T09:41:30;2.30;99.90
4564;DHT22;2294;51.818;8.484;2023-03-01T09:44:08;2.40;99.90
4564;DHT22;2294;51.818;8.484;2023-03-01T09:46:42;2.40;99.90
4564;DHT22;2294;51.818;8.484;2023-03-01T09:49:14;2.80;99.90
4564;DHT22;2294;51.818;8.484;2023-03-01T09:51:43;2.80;99.90
4564;DHT22;2294;51.818;8.484;2023-03-01T09:54:14;2.90;99.90
4564;DHT22;2294;51.818;8.484;2023-03-01T09:56:46;2.90;99.90
4564;DHT22;2294;51.818;8.484;2023-03-01T09:59:23;3.00;99.90
4564;DHT22;2294;51.818;8.484;2023-03-01T10:01:55;3.10;99.90
4564;DHT22;2294;51.818;8.484;2023-03-01T10:04:43;3.40;99.90
4564;DHT22;2294;51.818;8.484;2023-03-01T10:07:21;3.60;99.90
4564;DHT22;2294;51.818;8.484;2023-03-01T10:09:53;3.60;99.90
4564;DHT22;2294;51.818;8.484;2023-03-01T10:12:23;3.50;99.90
4564;DHT22;2294;51.818;8.484;2023-03-01T10:14:57;3.60;99.90
4564;DHT22;2294;51.818;8.484;2023-03-01T10:17:30;3.70;99.90
4564;DHT22;2294;51.818;8.484;2023-03-01T10:20:20;3.70;99.90
4564;DHT22;2294;51.818;8.484;2023-03-01T10:22:48;3.70;99.90
4564;DHT22;2294;51.818;8.484;2023-03-01T10:25:28;3.60;99.90
4564;DHT22;2294;51.818;8.484;2023-03-01T10:28:02;4.00;99.90
4564;DHT22;2294;51.818;8.484;2023-03-01T10:30:37;4.10;99.90
4564;DHT22;2294;51.818;8.484;2023-03-01T10:33:13;4.20;99.90
4564;DHT22;2294;51.818;8.484;2023-03-01T10:35:42;4.20;99.90
4564;DHT22;2294;51.818;8.484;2023-03-01T10:38:10;4.20;99.90
4564;DHT22;2294;51.818;8.484;2023-03-01T10:40:53;4.20;99.90
4564;DHT22;2294;51.818;8.484;2023-03-01T10:43:20;4.50;99.90
4564;DHT22;2294;51.818;8.484;2023-03-01T10:45:48;4.50;99.90
4564;DHT22;2294;51.818;8.484;2023-03-01T10:48:17;4.50;99.90
4564;DHT22;2294;51.818;8.484;2023-03-01T10:50:47;4.60;99.90
4564;DHT22;2294;51.818;8.484;2023-03-01T10:53:26;4.50;99.90
4564;DHT22;2294;51.818;8.484;2023-03-01T10:56:00;4.60;99.90
4564;DHT22;2294;51.818;8.484;2023-03-01T10:58:28;4.70;99.90
4564;DHT22;2294;51.818;8.484;2023-03-01T11:00:56;4.60;99.90
4564;DHT22;2294;51.818;8.484;2023-03-01T11:03:25;4.60;99.90
4564;DHT22;2294;51.818;8.484;2023-03-01T11:05:56;4.60;99.90
4564;DHT22;2294;51.818;8.484;2023-03-01T11:08:35;4.60;99.90
4564;DHT22;2294;51.818;8.484;2023-03-01T11:11:17;4.70;99.90
4564;DHT22;2294;51.818;8.484;2023-03-01T11:13:56;4.90;99.90
4564;DHT22;2294;51.818;8.484;2023-03-01T11:16:34;4.80;99.90
4564;DHT22;2294;51.818;8.484;2023-03-01T11:19:16;4.80;99.90
4564;DHT22;2294;51.818;8.484;2023-03-01T11:22:00;5.00;99.90
4564;DHT22;2294;51.818;8.484;2023-03-01T11:24:36;4.80;99.90
4564;DHT22;2294;51.818;8.484;2023-03-01T11:27:14;4.70;99.90
4564;DHT22;2294;51.818;8.484;2023-03-01T11:29:45;4.90;99.90
4564;DHT22;2294;51.818;8.484;2023-03-01T11:32:16;5.00;99.90
4564;DHT22;2294;51.818;8.484;2023-03-01T11:34:50;5.00;99.90
4564;DHT22;2294;51.818;8.484;2023-03-01T11:37:28;5.00;99.90
4564;DHT22;2294;51.818;8.484;2023-03-01T11:40:05;5.40;99.90
4564;DHT22;2294;51.818;8.484;2023-03-01T11:42:47;5.40;99.90
4564;DHT22;2294;51.818;8.484;2023-03-01T11:45:15;5.20;99.90
4564;DHT22;2294;51.818;8.484;2023-03-01T11:47:51;5.50;99.90
4564;DHT22;2294;51.818;8.484;2023-03-01T11:50:26;5.70;99.90
4564;DHT22;2294;51.818;8.484;2023-03-01T11:53:06;5.60;99.90
4564;DHT22;2294;51.818;8.484;2023-03-01T11:56:00;5.80;99.90
4564;DHT22;2294;51.818;8.484;2023-03-01T11:58:42;5.80;99.90
4564;DHT22;2294;51.818;8.484;2023-03-01T12:01:18;5.90;99.90
4564;DHT22;2294;51.818;8.484;2023-03-01T12:04:16;5.70;99.90
4564;DHT22;2294;51.818;8.484;2023-03-01T12:06:55;5.70;99.90
4564;DHT22;2294;51.818;8.484;2023-03-01T12:12:43;5.90;99.90
4564;DHT22;2294;51.818;8.484;2023-03-01T12:15:37;6.10;99.90
4564;DHT22;2294;51.818;8.484;2023-03-01T12:18:30;6.20;99.90
4564;DHT22;2294;51.818;8.484;2023-03-01T12:21:10;6.00;99.90
4564;DHT22;2294;51.818;8.484;2023-03-01T12:26:34;6.40;99.90
4564;DHT22;2294;51.818;8.484;2023-03-01T12:29:25;6.50;99.90
4564;DHT22;2294;51.818;8.484;2023-03-01T12:32:15;6.60;99.90
4564;DHT22;2294;51.818;8.484;2023-03-01T12:35:11;6.60;99.90
4564;DHT22;2294;51.818;8.484;2023-03-01T12:37:54;6.50;99.90
4564;DHT22;2294;51.818;8.484;2023-03-01T12:43:38;6.60;99.90
4564;DHT22;2294;51.818;8.484;2023-03-01T12:46:21;6.70;99.90
4564;DHT22;2294;51.818;8.484;2023-03-01T12:48:56;6.70;99.90
4564;DHT22;2294;51.818;8.484;2023-03-01T12:51:30;7.00;99.90
4564;DHT22;2294;51.818;8.484;2023-03-01T12:53:59;6.90;99.90
4564;DHT22;2294;51.818;8.484;2023-03-01T12:56:30;7.00;99.90
4564;DHT22;2294;51.818;8.484;2023-03-01T12:59:05;7.30;99.90
4564;DHT22;2294;51.818;8.484;2023-03-01T13:01:40;7.40;99.90
4564;DHT22;2294;51.818;8.484;2023-03-01T13:04:27;7.40;99.90
4564;DHT22;2294;51.818;8.484;2023-03-01T13:07:11;7.40;99.90
4564;DHT22;2294;51.818;8.484;2023-03-01T13:09:47;7.50;99.90
4564;DHT22;2294;51.818;8.484;2023-03-01T13:12:42;7.40;99.90
4564;DHT22;2294;51.818;8.484;2023-03-01T13:15:28;7.00;99.90
4564;DHT22;2294;51.818;8.484;2023-03-01T13:17:56;7.10;99.90
4564;DHT22;2294;51.818;8.484;2023-03-01T13:20:26;7.40;99.90
4564;DHT22;2294;51.818;8.484;2023-03-01T13:23:07;7.70;99.90
4564;DHT22;2294;51.818;8.484;2023-03-01T13:26:03;7.60;99.90
4564;DHT22;2294;51.818;8.484;2023-03-01T13:28:46;7.70;99.90
4564;DHT22;2294;51.818;8.484;2023-03-01T13:34:53;7.70;99.90
4564;DHT22;2294;51.818;8.484;2023-03-01T13:37:35;8.90;99.90
4564;DHT22;2294;51.818;8.484;2023-03-01T13:43:30;8.70;99.90
4564;DHT22;2294;51.818;8.484;2023-03-01T13:45:58;9.80;99.90
4564;DHT22;2294;51.818;8.484;2023-03-01T13:48:28;9.40;99.90
4564;DHT22;2294;51.818;8.484;2023-03-01T13:50:59;8.80;99.90
4564;DHT22;2294;51.818;8.484;2023-03-01T13:53:29;8.50;99.90
4564;DHT22;2294;51.818;8.484;2023-03-01T13:55:58;8.60;99.90
4564;DHT22;2294;51.818;8.484;2023-03-01T13:58:29;8.20;99.90
4564;DHT22;2294;51.818;8.484;2023-03-01T14:00:58;8.00;99.90
4564;DHT22;2294;51.818;8.484;2023-03-01T14:03:26;7.80;99.90
4564;DHT22;2294;51.818;8.484;2023-03-01T14:06:07;7.60;99.90
4564;DHT22;2294;51.818;8.484;2023-03-01T14:08:35;7.60;99.90
4564;DHT22;2294;51.818;8.484;2023-03-01T14:14:20;7.50;99.90
4564;DHT22;2294;51.818;8.484;2023-03-01T14:16:55;8.00;99.90
4564;DHT22;2294;51.818;8.484;2023-03-01T14:19:27;8.10;99.90
4564;DHT22;2294;51.818;8.484;2023-03-01T14:22:10;8.30;99.90
4564;DHT22;2294;51.818;8.484;2023-03-01T14:24:43;8.80;99.90
4564;DHT22;2294;51.818;8.484;2023-03-01T14:27:11;8.80;99.90
4564;DHT22;2294;51.818;8.484;2023-03-01T14:29:40;8.30;99.90
4564;DHT22;2294;51.818;8.484;2023-03-01T14:32:12;8.30;99.90
4564;DHT22;2294;51.818;8.484;2023-03-01T14:34:43;8.50;99.90
4564;DHT22;2294;51.818;8.484;2023-03-01T14:37:18;8.50;99.90
4564;DHT22;2294;51.818;8.484;2023-03-01T14:39:46;9.00;99.90
4564;DHT22;2294;51.818;8.484;2023-03-01T14:42:14;9.00;99.90
4564;DHT22;2294;51.818;8.484;2023-03-01T14:44:42;8.80;99.90
4564;DHT22;2294;51.818;8.484;2023-03-01T14:47:12;9.20;99.90
4564;DHT22;2294;51.818;8.484;2023-03-01T14:49:42;9.50;99.90
4564;DHT22;2294;51.818;8.484;2023-03-01T14:52:20;9.20;99.90
4564;DHT22;2294;51.818;8.484;2023-03-01T14:54:49;10.00;99.90
4564;DHT22;2294;51.818;8.484;2023-03-01T14:57:19;10.20;99.90
4564;DHT22;2294;51.818;8.484;2023-03-01T14:59:47;10.40;99.90
4564;DHT22;2294;51.818;8.484;2023-03-01T15:02:18;11.00;99.90
4564;DHT22;2294;51.818;8.484;2023-03-01T15:04:47;11.10;99.90
4564;DHT22;2294;51.818;8.484;2023-03-01T15:07:16;11.10;99.90
4564;DHT22;2294;51.818;8.484;2023-03-01T15:09:43;11.00;99.90
4564;DHT22;2294;51.818;8.484;2023-03-01T15:12:37;10.50;99.90
4564;DHT22;2294;51.818;8.484;2023-03-01T15:15:40;11.20;99.90
4564;DHT22;2294;51.818;8.484;2023-03-01T15:18:17;10.60;99.90
4564;DHT22;2294;51.818;8.484;2023-03-01T15:20:45;10.50;99.90
4564;DHT22;2294;51.818;8.484;2023-03-01T15:23:25;10.20;99.90
4564;DHT22;2294;51.818;8.484;2023-03-01T15:25:53;10.20;99.90
4564;DHT22;2294;51.818;8.484;2023-03-01T15:28:25;9.90;99.90
4564;DHT22;2294;51.818;8.484;2023-03-01T15:30:55;9.90;99.90
4564;DHT22;2294;51.818;8.484;2023-03-01T15:33:30;10.40;99.90
4564;DHT22;2294;51.818;8.484;2023-03-01T15:35:58;10.40;99.90
4564;DHT22;2294;51.818;8.484;2023-03-01T15:38:33;10.10;99.90
4564;DHT22;2294;51.818;8.484;2023-03-01T15:41:03;9.90;99.90
4564;DHT22;2294;51.818;8.484;2023-03-01T15:43:39;9.80;99.90
4564;DHT22;2294;51.818;8.484;2023-03-01T15:46:17;9.60;99.90
4564;DHT22;2294;51.818;8.484;2023-03-01T15:48:45;9.30;99.90
4564;DHT22;2294;51.818;8.484;2023-03-01T15:51:13;9.40;99.90
4564;DHT22;2294;51.818;8.484;2023-03-01T15:53:43;9.80;99.90
4564;DHT22;2294;51.818;8.484;2023-03-01T15:56:14;9.40;99.90
4564;DHT22;2294;51.818;8.484;2023-03-01T15:58:41;9.20;99.90
4564;DHT22;2294;51.818;8.484;2023-03-01T16:01:11;9.10;99.90
4564;DHT22;2294;51.818;8.484;2023-03-01T16:03:39;9.00;99.90
4564;DHT22;2294;51.818;8.484;2023-03-01T16:06:09;8.80;99.90
4564;DHT22;2294;51.818;8.484;2023-03-01T16:08:35;8.90;99.90
4564;DHT22;2294;51.818;8.484;2023-03-01T16:11:05;8.70;99.90
4564;DHT22;2294;51.818;8.484;2023-03-01T16:13:35;8.20;99.90
4564;DHT22;2294;51.818;8.484;2023-03-01T16:16:03;7.90;99.90
4564;DHT22;2294;51.818;8.484;2023-03-01T16:18:29;8.10;99.90
4564;DHT22;2294;51.818;8.484;2023-03-01T16:20:56;7.70;99.90
4564;DHT22;2294;51.818;8.484;2023-03-01T16:23:23;7.50;99.90
4564;DHT22;2294;51.818;8.484;2023-03-01T16:25:50;7.10;99.90
4564;DHT22;2294;51.818;8.484;2023-03-01T16:28:18;6.70;99.90
4564;DHT22;2294;51.818;8.484;2023-03-01T16:30:46;6.40;99.90
4564;DHT22;2294;51.818;8.484;2023-03-01T16:33:14;6.30;99.90
4564;DHT22;2294;51.818;8.484;2023-03-01T16:35:41;6.20;99.90
4564;DHT22;2294;51.818;8.484;2023-03-01T16:38:09;6.00;99.90
4564;DHT22;2294;51.818;8.484;2023-03-01T16:40:36;5.80;99.90
4564;DHT22;2294;51.818;8.484;2023-03-01T16:43:03;5.70;99.90
4564;DHT22;2294;51.818;8.484;2023-03-01T16:45:34;5.70;99.90
4564;DHT22;2294;51.818;8.484;2023-03-01T16:48:01;5.60;99.90
4564;DHT22;2294;51.818;8.484;2023-03-01T16:50:28;5.50;99.90
4564;DHT22;2294;51.818;8.484;2023-03-01T16:52:55;5.40;99.90
4564;DHT22;2294;51.818;8.484;2023-03-01T16:55:22;5.20;99.90